Saint George, Bermuda
Current Conditions -  °F | °C
As of 4:55 AM on Sunday 21 Dec 2014 (Local Time) from TXKF Reporting Station
Broken Clouds Broken Clouds  
Wind Chill: 66°   Ceiling: 8500
Heat Index: 66°   Visibility: 6mi
Dew Point: 55°   Wind: 6mph
Humidity: 68%   Direction: 320°NW
Pressure: 30.12"   Gusts: NA
Location:  32.37°N, 64.67°W
Report Text: TXKF 210755Z 32005KT 9999 FEW030 BKN085 BKN100 BKN30019/13 Q1020
Loading
Personal Weather Stations






























Interactive Weather Map New forecast layout! Learn more

10-Day Weather Forecast

Advertisements
Track Severe Weather on mobile